createdAt,value
2022-09-28T00:01:25.917Z,1.95
2022-09-28T00:03:57.779Z,2.42
2022-09-28T00:06:28.261Z,2.08
2022-09-28T00:08:55.922Z,2.28
2022-09-28T00:11:25.518Z,1.83
2022-09-28T00:13:56.943Z,1.92
2022-09-28T00:16:28.063Z,1.85
2022-09-28T00:18:55.434Z,2.00
2022-09-28T00:21:25.834Z,2.30
2022-09-28T00:24:13.299Z,1.90
2022-09-28T00:26:51.713Z,1.95
2022-09-28T00:29:27.688Z,1.70
2022-09-28T00:32:04.360Z,1.70
2022-09-28T00:34:36.737Z,1.50
2022-09-28T00:37:06.610Z,2.10
2022-09-28T00:39:34.662Z,1.63
2022-09-28T00:42:02.718Z,1.50
2022-09-28T00:45:01.664Z,2.25
2022-09-28T00:47:51.755Z,1.63
2022-09-28T00:50:30.559Z,1.50
2022-09-28T00:53:02.557Z,1.90
2022-09-28T00:56:07.598Z,2.05
2022-09-28T00:58:44.656Z,2.20
2022-09-28T01:01:12.766Z,1.60
2022-09-28T01:03:45.688Z,1.90
2022-09-28T01:06:20.718Z,1.88
2022-09-28T01:11:19.529Z,1.92
2022-09-28T01:13:48.810Z,1.90
2022-09-28T01:16:35.567Z,2.05
2022-09-28T01:19:44.107Z,1.70
2022-09-28T01:22:34.498Z,1.85
2022-09-28T01:25:40.977Z,1.40
2022-09-28T01:28:21.857Z,2.00
2022-09-28T01:31:06.845Z,1.58
2022-09-28T01:33:47.120Z,1.75
2022-09-28T01:36:28.465Z,2.00
2022-09-28T01:39:07.388Z,1.60
2022-09-28T01:41:36.958Z,1.92
2022-09-28T01:44:08.961Z,1.48
2022-09-28T01:46:44.865Z,1.75
2022-09-28T01:49:20.609Z,1.90
2022-09-28T01:51:56.256Z,2.13
2022-09-28T01:54:34.317Z,2.08
2022-09-28T01:57:11.773Z,2.40
2022-09-28T01:59:44.921Z,1.77
2022-09-28T02:02:16.970Z,2.10
2022-09-28T02:04:52.593Z,1.80
2022-09-28T02:07:56.337Z,1.90
2022-09-28T02:10:30.503Z,1.40
2022-09-28T02:13:09.337Z,1.60
2022-09-28T02:16:06.226Z,1.70
2022-09-28T02:18:34.040Z,1.90
2022-09-28T02:21:14.187Z,1.45
2022-09-28T02:23:54.346Z,1.90
2022-09-28T02:26:27.129Z,1.55
2022-09-28T02:28:53.918Z,1.40
2022-09-28T02:31:21.119Z,1.73
2022-09-28T02:33:51.173Z,1.92
2022-09-28T02:36:18.403Z,1.70
2022-09-28T02:38:45.370Z,2.10
2022-09-28T02:41:27.015Z,1.50
2022-09-28T02:44:15.993Z,2.03
2022-09-28T02:47:45.304Z,2.15
2022-09-28T02:50:59.652Z,1.60
2022-09-28T02:54:18.524Z,1.90
2022-09-28T02:57:04.052Z,1.90
2022-09-28T03:00:10.673Z,2.35
2022-09-28T03:02:46.721Z,2.30
2022-09-28T03:05:23.432Z,2.45
2022-09-28T03:08:04.157Z,2.90
2022-09-28T03:10:44.243Z,2.80
2022-09-28T03:13:14.291Z,2.15
2022-09-28T03:15:46.462Z,2.75
2022-09-28T03:18:15.323Z,1.90
2022-09-28T03:20:42.468Z,1.73
2022-09-28T03:23:25.425Z,2.50
2022-09-28T03:25:52.510Z,2.20
2022-09-28T03:28:19.641Z,2.38
2022-09-28T03:30:46.397Z,1.95
2022-09-28T03:33:13.243Z,2.70
2022-09-28T03:35:40.025Z,2.85
2022-09-28T03:38:06.868Z,2.05
2022-09-28T03:40:33.725Z,2.20
2022-09-28T03:43:01.536Z,2.72
2022-09-28T03:45:28.368Z,2.40
2022-09-28T03:47:55.213Z,2.45
2022-09-28T03:50:22.099Z,2.22
2022-09-28T03:52:49.073Z,2.40
2022-09-28T03:55:15.889Z,2.75
2022-09-28T03:57:42.655Z,2.65
2022-09-28T04:00:10.883Z,2.90
2022-09-28T04:02:37.767Z,3.00
2022-09-28T04:05:05.072Z,2.85
2022-09-28T04:07:31.860Z,2.80
2022-09-28T04:09:59.134Z,2.80
2022-09-28T04:12:25.908Z,2.75
2022-09-28T04:14:52.651Z,3.22
2022-09-28T04:17:19.582Z,3.00
2022-09-28T04:19:47.523Z,3.20
2022-09-28T04:22:14.394Z,2.85
2022-09-28T04:24:43.624Z,2.55
2022-09-28T04:27:28.833Z,2.90
2022-09-28T04:32:22.571Z,2.53
2022-09-28T04:34:49.750Z,2.80
2022-09-28T04:37:16.638Z,2.67
2022-09-28T04:39:47.585Z,3.35
2022-09-28T04:42:15.141Z,4.45
2022-09-28T04:44:41.921Z,4.10
2022-09-28T04:47:08.735Z,4.47
2022-09-28T04:49:37.493Z,3.65
2022-09-28T04:52:06.202Z,3.40
2022-09-28T04:54:33.384Z,4.72
2022-09-28T04:57:00.208Z,4.15
2022-09-28T04:59:27.080Z,5.38
2022-09-28T05:01:54.289Z,5.57
2022-09-28T05:04:25.610Z,5.38
2022-09-28T05:06:52.863Z,5.13
2022-09-28T05:09:19.710Z,5.03
2022-09-28T05:11:46.812Z,6.00
2022-09-28T05:14:13.631Z,6.93
2022-09-28T05:16:40.438Z,5.00
2022-09-28T05:19:07.503Z,5.88
2022-09-28T05:21:34.319Z,5.55
2022-09-28T05:24:01.515Z,5.32
2022-09-28T05:26:28.288Z,5.40
2022-09-28T05:28:55.078Z,5.25
2022-09-28T05:31:21.999Z,4.95
2022-09-28T05:33:49.310Z,5.72
2022-09-28T05:36:16.190Z,4.32
2022-09-28T05:38:43.370Z,4.95
2022-09-28T05:41:10.138Z,4.72
2022-09-28T05:43:37.107Z,3.22
2022-09-28T05:46:04.195Z,3.75
2022-09-28T05:48:31.149Z,3.47
2022-09-28T05:50:59.156Z,3.60
2022-09-28T05:53:26.061Z,4.00
2022-09-28T05:55:53.019Z,3.25
2022-09-28T05:58:19.823Z,3.53
2022-09-28T06:00:46.668Z,3.08
2022-09-28T06:03:15.271Z,3.28
2022-09-28T06:05:42.204Z,3.47
2022-09-28T06:08:13.154Z,2.85
2022-09-28T06:10:41.120Z,3.53
2022-09-28T06:13:08.748Z,3.15
2022-09-28T06:15:36.999Z,4.68
2022-09-28T06:18:11.046Z,3.60
2022-09-28T06:20:43.381Z,3.30
2022-09-28T06:23:11.293Z,3.00
2022-09-28T06:25:38.630Z,3.67
2022-09-28T06:28:14.673Z,3.35
2022-09-28T06:30:43.349Z,4.65
2022-09-28T06:33:13.438Z,4.88
2022-09-28T06:35:40.913Z,3.38
2022-09-28T06:38:08.034Z,3.63
2022-09-28T06:40:35.357Z,3.80
2022-09-28T06:43:15.289Z,4.72
2022-09-28T06:45:43.388Z,3.22
2022-09-28T06:48:11.573Z,3.50
2022-09-28T06:50:41.081Z,3.78
2022-09-28T06:53:12.008Z,4.18
2022-09-28T06:55:44.085Z,4.22
2022-09-28T06:58:14.615Z,3.90
2022-09-28T07:00:42.408Z,4.47
2022-09-28T07:03:14.298Z,3.80
2022-09-28T07:05:44.376Z,3.60
2022-09-28T07:08:12.385Z,4.03
2022-09-28T07:10:48.317Z,2.88
2022-09-28T07:13:43.276Z,4.07
2022-09-28T07:16:04.613Z,3.67
2022-09-28T07:18:31.513Z,4.22
2022-09-28T07:20:59.529Z,5.40
2022-09-28T07:23:29.719Z,4.55
2022-09-28T07:25:58.349Z,4.88
2022-09-28T07:28:25.552Z,3.80
2022-09-28T07:30:52.553Z,5.15
2022-09-28T07:33:19.410Z,4.80
2022-09-28T07:35:54.543Z,5.10
2022-09-28T07:38:22.257Z,4.10
2022-09-28T07:41:07.589Z,5.82
2022-09-28T07:46:01.356Z,6.03
2022-09-28T07:48:28.357Z,5.10
2022-09-28T07:50:57.451Z,4.80
2022-09-28T07:53:25.892Z,5.30
2022-09-28T07:55:53.331Z,3.83
2022-09-28T07:58:20.842Z,4.97
2022-09-28T08:00:49.578Z,3.85
2022-09-28T08:03:22.632Z,3.92
2022-09-28T08:05:49.931Z,3.72
2022-09-28T08:08:16.829Z,3.53
2022-09-28T08:10:47.243Z,3.90
2022-09-28T08:13:16.502Z,2.92
2022-09-28T08:15:43.361Z,2.80
2022-09-28T08:18:10.585Z,2.28
2022-09-28T08:20:55.944Z,2.40
2022-09-28T08:23:23.707Z,2.13
2022-09-28T08:25:55.307Z,2.17
2022-09-28T08:28:24.163Z,2.47
2022-09-28T08:30:51.858Z,1.95
2022-09-28T08:33:21.444Z,2.10
2022-09-28T08:35:54.866Z,2.22
2022-09-28T08:38:21.812Z,2.10
2022-09-28T08:41:15.692Z,1.67
2022-09-28T08:44:14.135Z,1.70
2022-09-28T08:47:01.371Z,1.20
2022-09-28T08:49:50.607Z,1.67
2022-09-28T08:52:26.845Z,1.45
2022-09-28T08:55:28.123Z,1.65
2022-09-28T08:58:23.783Z,1.88
2022-09-28T09:00:54.344Z,1.33
2022-09-28T09:03:33.706Z,1.27
2022-09-28T09:06:23.812Z,1.30
2022-09-28T09:09:14.876Z,1.10
2022-09-28T09:12:06.508Z,1.25
2022-09-28T09:15:39.392Z,0.90
2022-09-28T09:18:20.087Z,1.20
2022-09-28T09:20:59.179Z,1.10
2022-09-28T09:23:57.421Z,0.80
2022-09-28T09:26:39.690Z,1.15
2022-09-28T09:30:01.382Z,1.05
2022-09-28T09:32:37.080Z,1.08
2022-09-28T09:35:22.882Z,1.20
2022-09-28T09:37:58.659Z,1.00
2022-09-28T09:40:43.199Z,1.10
2022-09-28T09:43:58.886Z,1.20
2022-09-28T09:46:42.533Z,1.35
2022-09-28T09:49:33.593Z,1.10
2022-09-28T09:52:24.372Z,0.90
2022-09-28T09:55:03.629Z,0.98
2022-09-28T09:57:42.613Z,1.10
2022-09-28T10:00:15.474Z,1.30
2022-09-28T10:02:47.036Z,1.00
2022-09-28T10:05:13.774Z,2.42
2022-09-28T10:07:59.093Z,1.70
2022-09-28T10:10:34.212Z,1.60
2022-09-28T10:15:32.240Z,1.02
2022-09-28T10:18:06.889Z,0.95
2022-09-28T10:20:43.300Z,1.20
2022-09-28T10:23:30.221Z,1.27
2022-09-28T10:26:07.509Z,1.38
2022-09-28T10:28:45.989Z,1.15
2022-09-28T10:31:49.056Z,0.90
2022-09-28T10:34:19.065Z,1.15
2022-09-28T10:37:00.883Z,1.10
2022-09-28T10:39:53.376Z,0.90
2022-09-28T10:42:26.940Z,1.02
2022-09-28T10:45:04.865Z,1.10
2022-09-28T10:47:32.912Z,1.08
2022-09-28T10:50:01.047Z,0.80
2022-09-28T10:52:31.899Z,1.15
2022-09-28T10:54:58.868Z,0.90
2022-09-28T10:57:44.016Z,0.88
2022-09-28T11:00:31.851Z,0.95
2022-09-28T11:03:00.541Z,0.80
2022-09-28T11:05:28.094Z,0.55
2022-09-28T11:07:57.425Z,0.77
2022-09-28T11:10:29.364Z,0.82
2022-09-28T11:12:57.113Z,0.80
2022-09-28T11:15:33.377Z,0.70
2022-09-28T11:18:31.695Z,0.60
2022-09-28T11:21:15.906Z,0.60
2022-09-28T11:24:07.612Z,0.93
2022-09-28T11:26:44.740Z,0.77
2022-09-28T11:29:41.932Z,0.90
2022-09-28T11:32:14.897Z,0.80
2022-09-28T11:34:59.285Z,0.70
2022-09-28T11:37:37.943Z,0.60
2022-09-28T11:40:30.971Z,0.88
2022-09-28T11:43:16.802Z,0.73
2022-09-28T11:46:01.879Z,0.93
2022-09-28T11:48:41.053Z,0.90
2022-09-28T11:51:28.102Z,0.80
2022-09-28T11:54:18.286Z,0.90
2022-09-28T11:56:49.375Z,0.80
2022-09-28T11:59:28.032Z,0.93
2022-09-28T12:02:17.642Z,0.90
2022-09-28T12:04:51.333Z,0.98
2022-09-28T12:07:35.003Z,0.82
2022-09-28T12:10:45.265Z,0.85
2022-09-28T12:13:20.596Z,1.10
2022-09-28T12:19:11.257Z,1.08
2022-09-28T12:21:45.879Z,0.80
2022-09-28T12:24:16.478Z,0.80
2022-09-28T12:26:49.329Z,0.70
2022-09-28T12:29:23.884Z,0.85
2022-09-28T12:32:09.275Z,0.90
2022-09-28T12:34:36.158Z,0.77
2022-09-28T12:37:36.906Z,0.80
2022-09-28T12:40:23.514Z,0.80
2022-09-28T12:43:14.643Z,0.55
2022-09-28T12:46:21.583Z,0.68
2022-09-28T12:50:36.641Z,0.65
2022-09-28T12:53:29.760Z,0.60
2022-09-28T12:56:09.472Z,0.80
2022-09-28T12:59:07.216Z,0.88
2022-09-28T13:02:37.138Z,0.98
2022-09-28T13:05:44.608Z,1.20
2022-09-28T13:08:55.581Z,0.90
2022-09-28T13:11:34.324Z,0.98
2022-09-28T13:14:35.200Z,1.10
2022-09-28T13:17:35.679Z,1.00
2022-09-28T13:20:44.674Z,1.00
2022-09-28T13:23:31.483Z,0.95
2022-09-28T13:26:14.590Z,1.00
2022-09-28T13:28:44.369Z,1.10
2022-09-28T13:31:13.494Z,1.00
2022-09-28T13:33:44.069Z,1.00
2022-09-28T13:36:34.949Z,1.00
2022-09-28T13:39:02.216Z,0.90
2022-09-28T13:41:40.603Z,0.80
2022-09-28T13:44:13.385Z,0.80
2022-09-28T13:47:21.763Z,0.80
2022-09-28T13:50:15.629Z,0.65
2022-09-28T13:52:55.892Z,1.20
2022-09-28T13:55:47.414Z,0.60
2022-09-28T13:59:02.417Z,1.33
2022-09-28T14:01:43.132Z,0.93
2022-09-28T14:04:20.323Z,0.50
2022-09-28T14:06:57.117Z,0.40
2022-09-28T14:10:02.609Z,0.50
2022-09-28T14:12:35.056Z,0.50
2022-09-28T14:15:13.377Z,0.55
2022-09-28T14:18:05.523Z,0.68
2022-09-28T14:20:35.459Z,0.60
2022-09-28T14:23:43.352Z,0.60
2022-09-28T14:26:49.622Z,0.68
2022-09-28T14:32:25.130Z,0.45
2022-09-28T14:35:02.669Z,0.55
2022-09-28T14:37:54.821Z,0.50
2022-09-28T14:41:11.577Z,0.60
2022-09-28T14:46:25.612Z,0.30
2022-09-28T14:49:19.393Z,0.20
2022-09-28T14:52:02.743Z,0.22
2022-09-28T14:54:45.576Z,0.45
2022-09-28T14:57:19.908Z,0.40
2022-09-28T14:59:47.939Z,0.50
2022-09-28T15:02:25.737Z,0.65
2022-09-28T15:04:56.680Z,0.63
2022-09-28T15:07:28.968Z,0.70
2022-09-28T15:10:02.215Z,0.70
2022-09-28T15:12:31.436Z,0.55
2022-09-28T15:15:08.669Z,0.50
2022-09-28T15:17:40.282Z,0.57
2022-09-28T15:20:30.708Z,0.40
2022-09-28T15:22:59.791Z,0.55
2022-09-28T15:25:34.124Z,0.50
2022-09-28T15:28:17.010Z,0.60
2022-09-28T15:30:43.950Z,0.50
2022-09-28T15:33:44.714Z,0.77
2022-09-28T15:36:24.371Z,0.70
2022-09-28T15:39:12.768Z,0.50
2022-09-28T15:41:41.992Z,0.70
2022-09-28T15:44:33.148Z,0.60
2022-09-28T15:47:14.602Z,1.48
2022-09-28T15:49:53.761Z,1.38
2022-09-28T15:52:46.269Z,1.10
2022-09-28T15:55:25.041Z,1.10
2022-09-28T15:58:15.928Z,1.08
2022-09-28T16:00:45.277Z,1.10
2022-09-28T16:03:11.970Z,1.48
2022-09-28T16:05:56.746Z,2.20
2022-09-28T16:08:42.191Z,1.65
2022-09-28T16:11:20.460Z,0.98
2022-09-28T16:14:06.803Z,0.80
2022-09-28T16:16:49.503Z,0.82
2022-09-28T16:19:36.764Z,1.10
2022-09-28T16:22:13.662Z,0.90
2022-09-28T16:24:40.511Z,0.55
2022-09-28T16:27:44.588Z,0.95
2022-09-28T16:31:02.445Z,0.82
2022-09-28T16:33:43.985Z,0.70
2022-09-28T16:36:17.328Z,0.82
2022-09-28T16:38:48.782Z,0.68
2022-09-28T16:41:29.087Z,0.50
2022-09-28T16:44:02.361Z,0.50
2022-09-28T16:46:39.656Z,0.55
2022-09-28T16:49:07.253Z,0.43
2022-09-28T16:51:35.549Z,0.60
2022-09-28T16:54:33.480Z,0.45
2022-09-28T16:57:01.585Z,0.50
2022-09-28T16:59:29.211Z,0.45
2022-09-28T17:01:56.944Z,0.88
2022-09-28T17:04:25.530Z,0.50
2022-09-28T17:06:54.471Z,0.90
2022-09-28T17:09:22.528Z,0.80
2022-09-28T17:11:56.212Z,0.65
2022-09-28T17:14:24.350Z,0.90
2022-09-28T17:19:41.080Z,0.70
2022-09-28T17:22:10.104Z,0.70
2022-09-28T17:24:37.567Z,1.00
2022-09-28T17:27:07.025Z,0.73
2022-09-28T17:29:33.908Z,0.77
2022-09-28T17:32:00.773Z,0.80
2022-09-28T17:34:27.637Z,0.63
2022-09-28T17:36:55.150Z,1.30
2022-09-28T17:39:25.041Z,1.17
2022-09-28T17:41:51.981Z,3.67
2022-09-28T17:44:20.569Z,3.83
2022-09-28T17:46:49.743Z,2.95
2022-09-28T17:49:17.451Z,2.00
2022-09-28T17:51:47.366Z,2.53
2022-09-28T17:54:16.931Z,1.80
2022-09-28T17:56:43.805Z,1.00
2022-09-28T17:59:14.561Z,1.35
2022-09-28T18:01:41.599Z,1.20
2022-09-28T18:04:22.965Z,1.00
2022-09-28T18:06:54.717Z,1.10
2022-09-28T18:09:25.412Z,0.95
2022-09-28T18:12:01.032Z,1.90
2022-09-28T18:14:28.647Z,4.93
2022-09-28T18:16:55.578Z,4.78
2022-09-28T18:19:22.454Z,3.05
2022-09-28T18:21:49.224Z,1.90
2022-09-28T18:24:15.997Z,2.40
2022-09-28T18:26:42.822Z,2.08
2022-09-28T18:29:10.333Z,1.67
2022-09-28T18:31:37.149Z,0.70
2022-09-28T18:34:04.041Z,0.90
2022-09-28T18:36:33.917Z,1.00
2022-09-28T18:39:01.663Z,1.10
2022-09-28T18:41:29.460Z,1.50
2022-09-28T18:44:00.918Z,1.30
2022-09-28T18:46:29.572Z,1.17
2022-09-28T18:48:56.919Z,0.80
2022-09-28T18:51:23.887Z,1.10
2022-09-28T18:53:50.741Z,0.82
2022-09-28T18:56:19.308Z,0.95
2022-09-28T18:58:51.772Z,1.00
2022-09-28T19:01:36.545Z,1.02
2022-09-28T19:04:07.510Z,0.93
2022-09-28T19:06:38.815Z,1.08
2022-09-28T19:09:05.759Z,1.10
2022-09-28T19:11:33.018Z,1.20
2022-09-28T19:13:59.967Z,0.93
2022-09-28T19:16:30.109Z,1.08
2022-09-28T19:18:59.062Z,1.13
2022-09-28T19:21:27.248Z,1.27
2022-09-28T19:23:55.672Z,1.20
2022-09-28T19:26:27.089Z,1.17
2022-09-28T19:28:56.235Z,1.33
2022-09-28T19:31:24.050Z,1.00
2022-09-28T19:33:50.989Z,1.30
2022-09-28T19:36:21.956Z,1.80
2022-09-28T19:38:49.217Z,1.67
2022-09-28T19:41:43.403Z,1.60
2022-09-28T19:44:24.885Z,1.45
2022-09-28T19:47:04.331Z,3.75
2022-09-28T19:49:33.347Z,2.10
2022-09-28T19:52:16.788Z,2.30
2022-09-28T19:54:55.420Z,3.45
2022-09-28T19:57:31.863Z,3.17
2022-09-28T20:00:03.450Z,3.50
2022-09-28T20:02:30.777Z,2.40
2022-09-28T20:04:57.645Z,1.90
2022-09-28T20:07:24.497Z,2.00
2022-09-28T20:09:51.949Z,2.17
2022-09-28T20:12:18.940Z,1.80
2022-09-28T20:14:45.739Z,2.45
2022-09-28T20:17:12.573Z,3.00
2022-09-28T20:19:39.429Z,3.35
2022-09-28T20:22:06.615Z,2.85
2022-09-28T20:24:33.711Z,3.10
2022-09-28T20:27:01.701Z,2.70
2022-09-28T20:29:31.810Z,2.22
2022-09-28T20:31:59.201Z,1.88
2022-09-28T20:34:26.115Z,2.17
2022-09-28T20:36:53.070Z,2.40
2022-09-28T20:39:20.284Z,2.30
2022-09-28T20:41:49.214Z,2.13
2022-09-28T20:44:16.252Z,1.85
2022-09-28T20:46:44.413Z,1.67
2022-09-28T20:49:11.374Z,1.85
2022-09-28T20:51:38.170Z,1.90
2022-09-28T20:54:05.072Z,1.80
2022-09-28T20:56:38.971Z,1.80
2022-09-28T20:59:12.181Z,1.60
2022-09-28T21:01:39.186Z,1.77
2022-09-28T21:04:09.267Z,1.40
2022-09-28T21:06:39.925Z,1.38
2022-09-28T21:09:09.382Z,1.45
2022-09-28T21:11:37.169Z,1.30
2022-09-28T21:14:06.989Z,1.95
2022-09-28T21:16:35.418Z,2.10
2022-09-28T21:19:03.121Z,1.25
2022-09-28T21:21:30.426Z,1.20
2022-09-28T21:23:58.604Z,0.90
2022-09-28T21:26:29.744Z,1.00
2022-09-28T21:29:02.234Z,1.00
2022-09-28T21:31:39.810Z,1.20
2022-09-28T21:34:07.805Z,1.27
2022-09-28T21:36:34.877Z,0.75
2022-09-28T21:39:01.648Z,1.10
2022-09-28T21:41:29.364Z,1.08
2022-09-28T21:43:56.263Z,0.93
2022-09-28T21:46:23.336Z,0.90
2022-09-28T21:48:54.023Z,0.80
2022-09-28T21:51:21.225Z,0.80
2022-09-28T21:53:49.396Z,0.90
2022-09-28T21:56:16.350Z,0.90
2022-09-28T21:58:43.122Z,1.00
2022-09-28T22:01:22.942Z,1.05
2022-09-28T22:03:53.222Z,1.10
2022-09-28T22:06:23.460Z,1.10
2022-09-28T22:08:50.993Z,1.10
2022-09-28T22:11:21.389Z,0.80
2022-09-28T22:13:51.588Z,1.23
2022-09-28T22:16:22.613Z,1.00
2022-09-28T22:18:50.457Z,1.00
2022-09-28T22:21:26.762Z,1.13
2022-09-28T22:23:53.701Z,0.95
2022-09-28T22:26:24.979Z,1.17
2022-09-28T22:29:09.875Z,1.05
2022-09-28T22:31:40.159Z,1.05
2022-09-28T22:34:07.910Z,1.17
2022-09-28T22:36:34.929Z,1.27
2022-09-28T22:39:01.797Z,1.17
2022-09-28T22:41:28.728Z,1.05
2022-09-28T22:43:56.957Z,1.23
2022-09-28T22:46:27.278Z,1.00
2022-09-28T22:48:57.277Z,0.73
2022-09-28T22:51:26.432Z,1.10
2022-09-28T22:53:53.535Z,1.20
2022-09-28T22:56:20.621Z,1.27
2022-09-28T22:58:48.208Z,1.20
2022-09-28T23:01:22.182Z,1.58
2022-09-28T23:03:51.427Z,1.30
2022-09-28T23:06:21.157Z,1.15
2022-09-28T23:08:50.606Z,1.40
2022-09-28T23:11:17.677Z,1.30
2022-09-28T23:13:53.168Z,1.40
2022-09-28T23:16:20.919Z,1.50
2022-09-28T23:18:49.414Z,1.38
2022-09-28T23:21:19.741Z,1.40
2022-09-28T23:23:55.131Z,1.48
2022-09-28T23:26:26.709Z,1.60
2022-09-28T23:28:54.188Z,1.77
2022-09-28T23:31:28.088Z,1.33
2022-09-28T23:34:05.340Z,1.60
2022-09-28T23:36:32.740Z,1.30
2022-09-28T23:38:59.779Z,1.50
2022-09-28T23:41:26.669Z,1.20
2022-09-28T23:43:53.537Z,1.63
2022-09-28T23:46:21.239Z,1.30
2022-09-28T23:48:49.549Z,1.55
2022-09-28T23:51:16.837Z,1.50
2022-09-28T23:53:43.784Z,1.48
2022-09-28T23:56:11.356Z,2.00
2022-09-28T23:58:38.309Z,1.70
